Time;durP1;ratioP1;P1;durP2;ratioP2;P2;SDS_P1;SDS_P2;PMS_P1;PMS_P2;Temp;Humidity;BMP_temperature;BMP_pressure;BME280_temperature;BME280_humidity;BME280_pressure;Samples;Min_cycle;Max_cycle;Signal;HPM_P1;HPM_P2
2021/08/15 00:01:52;;;;;;;8.30;7.53;;;22.60;99.90;;;;;;5012405;28;20510;-78
2021/08/15 00:04:19;;;;;;;9.90;8.33;;;22.60;99.90;;;;;;5007692;28;20463;-78
2021/08/15 00:06:46;;;;;;;9.30;8.40;;;22.50;99.90;;;;;;5005200;28;20451;-79
2021/08/15 00:09:14;;;;;;;9.70;7.80;;;22.50;99.90;;;;;;5004003;28;21081;-79
2021/08/15 00:11:42;;;;;;;11.00;7.97;;;22.50;99.90;;;;;;5008896;28;20485;-79
2021/08/15 00:14:11;;;;;;;9.47;8.37;;;22.40;99.90;;;;;;5004042;28;20485;-78
2021/08/15 00:16:38;;;;;;;8.90;8.10;;;22.50;99.90;;;;;;5001619;28;20464;-78
2021/08/15 00:19:07;;;;;;;10.43;7.53;;;22.50;99.90;;;;;;5005659;28;20225;-78
2021/08/15 00:21:33;;;;;;;8.20;7.33;;;22.40;99.90;;;;;;5012653;28;20456;-78
2021/08/15 00:24:08;;;;;;;12.00;9.17;;;22.40;99.90;;;;;;5005488;28;20456;-79
2021/08/15 00:26:36;;;;;;;10.30;7.40;;;22.40;99.90;;;;;;5010848;28;20459;-78
2021/08/15 00:29:03;;;;;;;9.07;7.83;;;22.40;99.90;;;;;;5023365;28;20456;-80
2021/08/15 00:31:30;;;;;;;7.73;6.93;;;22.40;99.90;;;;;;5011649;28;20510;-79
2021/08/15 00:33:57;;;;;;;9.23;8.17;;;22.40;99.90;;;;;;5009726;28;20483;-79
2021/08/15 00:36:24;;;;;;;12.20;8.63;;;22.40;99.90;;;;;;5008141;28;20460;-79
2021/08/15 00:38:51;;;;;;;9.80;8.23;;;22.30;99.90;;;;;;5008640;28;20281;-78
2021/08/15 00:41:17;;;;;;;9.95;8.43;;;22.30;99.90;;;;;;5004737;28;20693;-77
2021/08/15 00:43:45;;;;;;;9.43;8.00;;;22.30;99.90;;;;;;5006719;28;20203;-77
2021/08/15 00:46:14;;;;;;;11.45;9.05;;;22.10;99.90;;;;;;5005173;28;20193;-78
2021/08/15 00:48:41;;;;;;;13.45;8.00;;;22.30;99.90;;;;;;5007013;28;20565;-77
2021/08/15 00:51:08;;;;;;;10.67;9.00;;;22.40;99.90;;;;;;5008337;28;20775;-78
2021/08/15 00:53:36;;;;;;;7.83;7.03;;;22.30;99.90;;;;;;5004761;28;20513;-77
2021/08/15 00:56:04;;;;;;;9.85;8.50;;;22.20;99.90;;;;;;5005718;28;20452;-77
2021/08/15 00:58:32;;;;;;;11.45;8.43;;;22.20;99.90;;;;;;5006827;28;20204;-78
2021/08/15 01:01:01;;;;;;;10.43;8.65;;;22.50;99.90;;;;;;5006809;28;20304;-78
2021/08/15 01:03:28;;;;;;;9.20;8.13;;;22.20;99.90;;;;;;5002629;28;20263;-77
2021/08/15 01:05:55;;;;;;;10.40;8.25;;;22.20;99.90;;;;;;5004261;28;20196;-77
2021/08/15 01:08:22;;;;;;;7.57;6.88;;;22.20;99.90;;;;;;5006567;28;20220;-77
2021/08/15 01:10:49;;;;;;;9.38;8.43;;;22.10;99.90;;;;;;5007041;28;20205;-77
2021/08/15 01:13:16;;;;;;;11.90;9.68;;;22.10;99.90;;;;;;5008271;28;20247;-77
2021/08/15 01:15:42;;;;;;;10.35;8.60;;;22.10;99.90;;;;;;5009691;28;20494;-77
2021/08/15 01:18:24;;;;;;;13.30;8.98;;;22.10;99.90;;;;;;5009292;28;20197;-77
2021/08/15 01:20:57;;;;;;;9.63;8.60;;;22.00;99.90;;;;;;5008501;28;20200;-78
2021/08/15 01:23:24;;;;;;;10.70;8.10;;;22.00;99.90;;;;;;5011103;28;20661;-77
2021/08/15 01:25:50;;;;;;;10.18;9.13;;;22.00;99.90;;;;;;5009333;28;20474;-78
2021/08/15 01:28:19;;;;;;;8.90;7.68;;;22.00;99.90;;;;;;5010735;28;20208;-77
2021/08/15 01:30:47;;;;;;;11.00;8.18;;;22.00;99.90;;;;;;5010371;28;20193;-77
2021/08/15 01:33:25;;;;;;;9.40;8.50;;;21.90;99.90;;;;;;5008097;28;20283;-77
2021/08/15 01:35:53;;;;;;;11.73;9.50;;;21.90;99.90;;;;;;5006734;28;20657;-77
2021/08/15 01:38:20;;;;;;;10.98;7.97;;;21.90;99.90;;;;;;5006125;28;20278;-77
2021/08/15 01:40:47;;;;;;;9.50;8.50;;;21.90;99.90;;;;;;5007758;28;20197;-78
2021/08/15 01:43:14;;;;;;;9.25;8.25;;;21.90;99.90;;;;;;5003234;28;20197;-77
2021/08/15 01:45:42;;;;;;;8.73;7.13;;;21.90;99.90;;;;;;5005548;28;20223;-78
2021/08/15 01:48:09;;;;;;;8.35;7.43;;;21.90;99.90;;;;;;5003656;28;20208;-78
2021/08/15 01:50:36;;;;;;;8.75;7.93;;;21.80;99.90;;;;;;5008264;28;20193;-78
2021/08/15 01:53:06;;;;;;;8.68;7.80;;;21.80;99.90;;;;;;5006086;28;20739;-78
2021/08/15 01:55:33;;;;;;;8.68;7.78;;;21.90;99.90;;;;;;5003716;28;20205;-78
2021/08/15 01:58:00;;;;;;;8.80;7.90;;;21.80;99.90;;;;;;5006835;28;20435;-78
2021/08/15 02:00:26;;;;;;;10.55;8.35;;;21.80;99.90;;;;;;5012693;28;20704;-78
2021/08/15 02:02:54;;;;;;;9.50;7.90;;;21.80;99.90;;;;;;5009467;28;20680;-78
2021/08/15 02:05:21;;;;;;;10.70;9.65;;;21.70;99.90;;;;;;5010905;28;20460;-79
2021/08/15 02:07:54;;;;;;;9.57;8.23;;;21.70;99.90;;;;;;5007097;28;20193;-77
2021/08/15 02:10:22;;;;;;;9.57;8.27;;;21.70;99.90;;;;;;5005155;28;20207;-78
2021/08/15 02:12:48;;;;;;;8.40;7.57;;;21.70;99.90;;;;;;5009536;28;20199;-78
2021/08/15 02:15:15;;;;;;;9.75;8.57;;;21.70;99.90;;;;;;5006179;28;20251;-78
2021/08/15 02:17:42;;;;;;;10.83;7.57;;;21.70;99.90;;;;;;5007748;28;20201;-78
2021/08/15 02:20:11;;;;;;;9.57;7.45;;;21.50;99.90;;;;;;4993489;28;20468;-78
2021/08/15 02:22:37;;;;;;;9.07;7.63;;;21.60;99.90;;;;;;4990389;28;20204;-78
2021/08/15 02:25:06;;;;;;;9.70;8.40;;;21.60;99.90;;;;;;5007251;28;20275;-78
2021/08/15 02:27:33;;;;;;;11.27;7.97;;;21.60;99.90;;;;;;5010354;28;20201;-77
2021/08/15 02:29:59;;;;;;;8.77;7.70;;;21.50;99.90;;;;;;5011232;28;20632;-78
2021/08/15 02:32:26;;;;;;;9.80;8.43;;;21.50;99.90;;;;;;5011375;28;20267;-78
2021/08/15 02:34:53;;;;;;;11.15;8.38;;;21.50;99.90;;;;;;5012426;28;20219;-78
2021/08/15 02:37:21;;;;;;;10.18;8.32;;;21.50;99.90;;;;;;5011200;28;20665;-79
2021/08/15 02:39:47;;;;;;;7.97;7.15;;;21.50;99.90;;;;;;5011097;28;20613;-78
2021/08/15 02:42:14;;;;;;;8.43;7.03;;;21.50;99.90;;;;;;5009566;28;20193;-78
2021/08/15 02:44:42;;;;;;;9.88;8.88;;;21.40;99.90;;;;;;5008920;28;20688;-78
2021/08/15 02:47:09;;;;;;;8.75;7.80;;;21.40;99.90;;;;;;5008635;28;20193;-78
2021/08/15 02:49:37;;;;;;;11.18;8.50;;;21.40;99.90;;;;;;5009667;28;20197;-77
2021/08/15 02:52:04;;;;;;;8.43;7.63;;;21.30;99.90;;;;;;5009525;28;20252;-77
2021/08/15 02:54:32;;;;;;;8.77;7.88;;;21.30;99.90;;;;;;5006086;28;20513;-78
2021/08/15 02:56:59;;;;;;;8.30;7.50;;;21.30;99.90;;;;;;5009322;28;20890;-77
2021/08/15 02:59:25;;;;;;;9.90;8.90;;;21.30;99.90;;;;;;5007229;28;20271;-77
2021/08/15 03:01:52;;;;;;;9.65;8.02;;;21.30;99.90;;;;;;5007497;28;20664;-77
2021/08/15 03:04:20;;;;;;;11.35;8.38;;;21.30;99.90;;;;;;5008434;28;20429;-78
2021/08/15 03:06:46;;;;;;;9.07;7.60;;;21.30;99.90;;;;;;5017992;28;20267;-78
2021/08/15 03:09:13;;;;;;;10.13;7.90;;;21.20;99.90;;;;;;5015517;28;20200;-78
2021/08/15 03:11:41;;;;;;;7.28;6.57;;;21.20;99.90;;;;;;5010788;28;20657;-78
2021/08/15 03:14:08;;;;;;;10.48;8.80;;;21.20;99.90;;;;;;5005131;28;20269;-77
2021/08/15 03:16:34;;;;;;;11.65;8.63;;;21.20;99.90;;;;;;5004940;28;20678;-77
2021/08/15 03:19:01;;;;;;;17.23;9.60;;;21.10;99.90;;;;;;5005503;28;20259;-78
2021/08/15 03:21:29;;;;;;;9.25;8.35;;;21.10;99.90;;;;;;5005565;28;20255;-77
2021/08/15 03:23:56;;;;;;;10.93;8.40;;;21.10;99.90;;;;;;5005651;28;20204;-78
2021/08/15 03:26:23;;;;;;;8.20;7.40;;;21.10;99.90;;;;;;5002802;28;20194;-77
2021/08/15 03:28:51;;;;;;;10.95;8.45;;;21.10;99.90;;;;;;5000459;28;20200;-77
2021/08/15 03:31:18;;;;;;;13.07;9.73;;;20.80;99.90;;;;;;5005713;28;20193;-77
2021/08/15 03:33:44;;;;;;;9.73;8.82;;;21.00;99.90;;;;;;5005733;28;20727;-78
2021/08/15 03:36:11;;;;;;;11.98;9.40;;;21.00;99.90;;;;;;5006399;28;20189;-78
2021/08/15 03:38:38;;;;;;;10.18;9.13;;;20.90;99.90;;;;;;5006837;28;20597;-78
2021/08/15 03:41:04;;;;;;;9.50;8.43;;;21.00;99.90;;;;;;5005628;28;20197;-78
2021/08/15 03:43:31;;;;;;;12.20;8.93;;;20.90;99.90;;;;;;5004934;28;20487;-77
2021/08/15 03:45:59;;;;;;;8.93;7.95;;;20.90;99.90;;;;;;5004429;28;20197;-77
2021/08/15 03:48:26;;;;;;;8.80;7.88;;;20.90;99.90;;;;;;5005674;28;20255;-77
2021/08/15 03:50:53;;;;;;;9.48;8.57;;;20.90;99.90;;;;;;5008247;28;20581;-78
2021/08/15 03:53:19;;;;;;;11.15;8.77;;;20.80;99.90;;;;;;5009467;28;20443;-78
2021/08/15 03:55:46;;;;;;;8.07;7.00;;;21.10;99.90;;;;;;4992566;28;20288;-78
2021/08/15 03:58:13;;;;;;;9.02;7.90;;;20.80;99.90;;;;;;5001929;28;20253;-78
2021/08/15 04:00:40;;;;;;;9.35;8.45;;;20.80;99.90;;;;;;5010139;28;20787;-78
2021/08/15 04:03:09;;;;;;;9.63;8.10;;;20.80;99.90;;;;;;5008902;28;20197;-77
2021/08/15 04:05:36;;;;;;;9.07;8.18;;;20.80;99.90;;;;;;5005993;28;20305;-78
2021/08/15 04:08:05;;;;;;;10.02;7.90;;;20.70;99.90;;;;;;5006282;28;20197;-78
2021/08/15 04:10:31;;;;;;;10.55;8.95;;;20.70;99.90;;;;;;5008556;28;20201;-78
2021/08/15 04:12:58;;;;;;;9.90;8.90;;;20.70;99.90;;;;;;5009716;28;20232;-78
2021/08/15 04:15:26;;;;;;;10.20;9.05;;;20.70;99.90;;;;;;5008545;28;20228;-78
2021/08/15 04:17:53;;;;;;;10.55;9.45;;;20.70;99.90;;;;;;5010015;28;20612;-78
2021/08/15 04:20:22;;;;;;;9.30;8.32;;;20.70;99.90;;;;;;5011124;28;20201;-77
2021/08/15 04:22:49;;;;;;;8.80;7.57;;;20.70;99.90;;;;;;5007070;28;20531;-78
2021/08/15 04:25:16;;;;;;;9.60;7.60;;;20.60;99.90;;;;;;5003065;28;20224;-78
2021/08/15 04:27:43;;;;;;;9.27;8.00;;;20.60;99.90;;;;;;5003129;28;20254;-77
2021/08/15 04:30:11;;;;;;;8.43;7.57;;;20.60;99.90;;;;;;5003694;28;20185;-78
2021/08/15 04:32:38;;;;;;;12.25;8.40;;;20.60;99.90;;;;;;5007403;28;20202;-78
2021/08/15 04:35:06;;;;;;;10.10;9.10;;;20.60;99.90;;;;;;5005669;28;20223;-77
2021/08/15 04:37:34;;;;;;;8.98;8.05;;;20.60;99.90;;;;;;5007228;28;20707;-78
2021/08/15 04:40:01;;;;;;;14.65;8.63;;;20.60;99.90;;;;;;5004134;28;21563;-78
2021/08/15 04:42:27;;;;;;;8.35;7.45;;;20.50;99.90;;;;;;4997247;28;20204;-78
2021/08/15 04:44:54;;;;;;;10.50;8.60;;;20.60;99.90;;;;;;5003443;28;20222;-78
2021/08/15 04:47:21;;;;;;;8.85;7.93;;;20.50;99.90;;;;;;5005916;28;20232;-77
2021/08/15 04:49:48;;;;;;;9.45;8.43;;;20.60;99.90;;;;;;5009281;28;20193;-77
2021/08/15 04:52:14;;;;;;;8.55;7.70;;;20.50;99.90;;;;;;5007626;28;20197;-78
2021/08/15 04:54:42;;;;;;;9.88;8.65;;;20.50;99.90;;;;;;5009911;28;20625;-78
2021/08/15 04:57:09;;;;;;;8.60;7.45;;;20.50;99.90;;;;;;5011758;28;20256;-77
2021/08/15 04:59:36;;;;;;;9.13;8.15;;;20.50;99.90;;;;;;5008043;28;20201;-78
2021/08/15 05:02:03;;;;;;;9.40;7.35;;;20.30;99.90;;;;;;5009141;28;20224;-78
2021/08/15 05:04:30;;;;;;;8.73;7.80;;;20.50;99.90;;;;;;5010867;28;20208;-78
2021/08/15 05:06:56;;;;;;;9.65;8.10;;;20.50;99.90;;;;;;5010760;28;20661;-78
2021/08/15 05:09:23;;;;;;;9.48;7.63;;;20.50;99.90;;;;;;4996360;28;20594;-77
2021/08/15 05:11:51;;;;;;;8.93;8.02;;;20.40;99.90;;;;;;5009383;28;20200;-77
2021/08/15 05:14:18;;;;;;;9.25;7.45;;;20.50;99.90;;;;;;5010929;28;20267;-77
2021/08/15 05:16:44;;;;;;;10.00;8.43;;;20.50;99.90;;;;;;5010860;28;20205;-77
2021/08/15 05:19:11;;;;;;;12.43;7.95;;;20.40;99.90;;;;;;5011000;28;20200;-77
2021/08/15 05:21:38;;;;;;;9.55;8.45;;;20.40;99.90;;;;;;5012850;28;20201;-77
2021/08/15 05:24:05;;;;;;;10.07;8.57;;;20.50;99.90;;;;;;5008143;28;20208;-77
2021/08/15 05:26:32;;;;;;;8.65;7.55;;;20.40;99.90;;;;;;5011161;28;20197;-77
2021/08/15 05:29:00;;;;;;;8.00;7.13;;;20.50;99.90;;;;;;5010083;28;20205;-77
2021/08/15 05:31:27;;;;;;;9.77;8.70;;;20.50;99.90;;;;;;5010958;28;20201;-77
2021/08/15 05:33:53;;;;;;;8.95;8.05;;;20.50;99.90;;;;;;5010340;28;20197;-77
2021/08/15 05:36:20;;;;;;;8.18;7.38;;;20.50;99.90;;;;;;5005718;28;20201;-77
2021/08/15 05:38:47;;;;;;;9.45;8.55;;;20.50;99.90;;;;;;5007008;28;20636;-76
2021/08/15 05:41:13;;;;;;;9.63;8.63;;;20.50;99.90;;;;;;5005908;28;20587;-77
2021/08/15 05:43:40;;;;;;;10.07;8.43;;;20.50;99.90;;;;;;5007072;28;20243;-77
2021/08/15 05:46:08;;;;;;;10.07;8.98;;;20.50;99.90;;;;;;5006435;28;20200;-78
2021/08/15 05:48:35;;;;;;;9.90;8.77;;;20.70;99.90;;;;;;5007435;28;20695;-77
2021/08/15 05:51:02;;;;;;;10.90;9.40;;;20.60;99.90;;;;;;5007820;28;20201;-77
2021/08/15 05:53:28;;;;;;;9.57;8.60;;;20.60;99.90;;;;;;5012959;28;20209;-78
2021/08/15 05:55:55;;;;;;;8.57;7.65;;;20.60;99.90;;;;;;5009240;28;20279;-78
2021/08/15 05:58:22;;;;;;;9.25;7.53;;;20.60;99.90;;;;;;5011324;28;20212;-78
2021/08/15 06:00:49;;;;;;;8.63;7.60;;;20.70;99.90;;;;;;5011238;28;20214;-78
2021/08/15 06:03:17;;;;;;;8.90;7.90;;;20.90;99.90;;;;;;5015755;28;20255;-78
2021/08/15 06:05:43;;;;;;;8.63;7.80;;;21.10;99.90;;;;;;5009629;28;20193;-79
2021/08/15 06:08:10;;;;;;;9.18;8.25;;;21.00;99.90;;;;;;5013299;28;20259;-78
2021/08/15 06:10:38;;;;;;;8.82;7.93;;;21.40;99.90;;;;;;5014844;28;20197;-78
2021/08/15 06:13:04;;;;;;;8.60;7.80;;;21.50;99.90;;;;;;5011399;28;20228;-78
2021/08/15 06:15:31;;;;;;;9.13;8.23;;;21.50;99.90;;;;;;5001747;28;20235;-78
2021/08/15 06:17:58;;;;;;;9.38;8.23;;;21.50;99.90;;;;;;5001771;28;20198;-78
2021/08/15 06:20:26;;;;;;;9.60;8.70;;;21.40;99.90;;;;;;5010553;28;20288;-77
2021/08/15 06:22:53;;;;;;;7.97;7.18;;;21.40;99.90;;;;;;5005277;28;20200;-77
2021/08/15 06:25:20;;;;;;;8.95;7.72;;;21.40;99.90;;;;;;5002822;28;20204;-77
2021/08/15 06:27:47;;;;;;;9.13;7.60;;;21.30;99.90;;;;;;5010663;28;20631;-77
2021/08/15 06:30:15;;;;;;;8.77;7.88;;;21.30;99.90;;;;;;5012764;28;20719;-78
2021/08/15 06:32:46;;;;;;;9.20;8.27;;;21.30;99.90;;;;;;5015538;28;20204;-77
2021/08/15 06:35:15;;;;;;;8.07;7.18;;;21.20;99.90;;;;;;5010085;28;20575;-78
2021/08/15 06:37:43;;;;;;;11.23;7.18;;;21.20;99.90;;;;;;5010852;28;20193;-78
2021/08/15 06:40:11;;;;;;;9.45;7.15;;;21.10;99.90;;;;;;5011791;28;20204;-78
2021/08/15 06:42:38;;;;;;;9.85;8.20;;;21.10;99.90;;;;;;5021098;28;20207;-78
2021/08/15 06:45:05;;;;;;;8.27;6.78;;;21.10;99.90;;;;;;5018748;28;20223;-78
2021/08/15 06:47:32;;;;;;;9.82;7.47;;;21.10;99.90;;;;;;5020234;28;20227;-79
2021/08/15 06:50:02;;;;;;;8.45;7.65;;;21.10;99.90;;;;;;5018298;28;21493;-78
2021/08/15 06:52:29;;;;;;;11.68;7.95;;;21.40;99.90;;;;;;5004037;28;20194;-79
2021/08/15 06:54:57;;;;;;;8.70;7.60;;;21.20;99.90;;;;;;5011655;28;20217;-79
2021/08/15 06:57:23;;;;;;;8.23;7.43;;;21.10;99.90;;;;;;5019537;28;20220;-79
2021/08/15 06:59:50;;;;;;;8.00;7.20;;;21.10;99.90;;;;;;5018892;28;20201;-78
2021/08/15 07:02:17;;;;;;;8.60;7.68;;;21.10;99.90;;;;;;5010123;28;20256;-77
2021/08/15 07:04:44;;;;;;;7.60;6.95;;;21.10;99.90;;;;;;5001684;28;20206;-77
2021/08/15 07:07:11;;;;;;;7.53;6.78;;;21.20;99.90;;;;;;5004809;28;20714;-77
2021/08/15 07:09:37;;;;;;;8.88;7.95;;;21.20;99.90;;;;;;5005007;28;20197;-77
2021/08/15 07:12:06;;;;;;;7.82;7.03;;;21.20;99.90;;;;;;5003466;28;20197;-77
2021/08/15 07:14:33;;;;;;;8.07;7.25;;;21.20;99.90;;;;;;5004794;28;20247;-77
2021/08/15 07:17:00;;;;;;;8.27;7.00;;;21.20;99.90;;;;;;5004842;28;20204;-77
2021/08/15 07:19:26;;;;;;;8.25;7.28;;;21.20;99.90;;;;;;5006046;28;20597;-77
2021/08/15 07:21:53;;;;;;;8.55;7.80;;;21.20;99.90;;;;;;5006812;28;20665;-77
2021/08/15 07:24:20;;;;;;;11.10;7.90;;;21.20;99.90;;;;;;5005406;28;20692;-78
2021/08/15 07:26:47;;;;;;;7.63;6.50;;;21.30;99.90;;;;;;5003179;28;20219;-77
2021/08/15 07:29:15;;;;;;;6.82;6.10;;;21.20;99.90;;;;;;5006416;28;20197;-77
2021/08/15 07:31:41;;;;;;;8.60;6.97;;;21.20;99.90;;;;;;5007774;28;20605;-78
2021/08/15 07:34:08;;;;;;;7.28;6.25;;;21.20;99.90;;;;;;5007521;28;20193;-78
2021/08/15 07:36:36;;;;;;;8.50;7.45;;;21.30;99.90;;;;;;5006820;28;20279;-77
2021/08/15 07:39:03;;;;;;;8.50;6.53;;;21.30;99.90;;;;;;5008853;28;20192;-77
2021/08/15 07:41:30;;;;;;;7.90;6.80;;;21.30;99.90;;;;;;5009397;28;20735;-77
2021/08/15 07:43:56;;;;;;;7.03;6.22;;;21.40;99.90;;;;;;5007302;28;20207;-77
2021/08/15 07:46:24;;;;;;;8.02;6.72;;;21.50;99.90;;;;;;5008599;28;20639;-77
2021/08/15 07:48:51;;;;;;;10.52;7.80;;;21.50;99.90;;;;;;5006481;28;20207;-77
2021/08/15 07:51:18;;;;;;;7.18;6.45;;;21.60;99.90;;;;;;5010949;28;20608;-78
2021/08/15 07:53:45;;;;;;;6.63;5.97;;;21.70;99.90;;;;;;5008726;28;20730;-78
2021/08/15 07:56:11;;;;;;;7.10;6.35;;;21.80;99.90;;;;;;5010112;28;20217;-79
2021/08/15 07:58:38;;;;;;;10.00;7.53;;;22.00;99.90;;;;;;5006167;28;20267;-77
2021/08/15 08:01:05;;;;;;;7.50;6.80;;;22.30;99.90;;;;;;4999944;28;20464;-78
2021/08/15 08:03:33;;;;;;;5.77;5.27;;;22.50;99.90;;;;;;5004988;28;20787;-77
2021/08/15 08:05:59;;;;;;;7.37;6.60;;;22.80;99.90;;;;;;5005592;28;20779;-77
2021/08/15 08:08:26;;;;;;;6.80;5.60;;;22.90;99.90;;;;;;5002171;28;21034;-77
2021/08/15 08:10:54;;;;;;;10.33;5.77;;;23.00;99.90;;;;;;5004273;28;20471;-78
2021/08/15 08:13:22;;;;;;;8.23;5.50;;;23.10;99.90;;;;;;5010385;28;20456;-78
2021/08/15 08:15:49;;;;;;;8.10;6.60;;;23.20;99.90;;;;;;5007993;28;20999;-78
2021/08/15 08:18:16;;;;;;;5.90;5.30;;;23.40;99.90;;;;;;5005415;28;20510;-78
2021/08/15 08:20:44;;;;;;;6.87;5.90;;;23.50;99.90;;;;;;5013678;28;20955;-79
2021/08/15 08:23:13;;;;;;;5.67;5.07;;;23.70;99.90;;;;;;5021322;28;20463;-79
2021/08/15 08:25:43;;;;;;;7.37;6.37;;;23.80;99.90;;;;;;5015704;28;20467;-77
2021/08/15 08:28:09;;;;;;;6.80;6.10;;;23.90;99.90;;;;;;5008326;28;21058;-79
2021/08/15 08:30:37;;;;;;;5.37;4.87;;;24.00;99.90;;;;;;5013376;28;20459;-78
2021/08/15 08:33:04;;;;;;;6.40;4.60;;;24.10;99.90;;;;;;5009447;28;20459;-78
2021/08/15 08:35:31;;;;;;;5.30;4.70;;;24.10;99.90;;;;;;5010809;28;20487;-78
2021/08/15 08:37:59;;;;;;;5.43;4.97;;;24.10;99.90;;;;;;5010802;28;20467;-78
2021/08/15 08:40:26;;;;;;;5.43;4.93;;;24.20;99.90;;;;;;5012954;28;20462;-78
2021/08/15 08:42:53;;;;;;;4.97;4.43;;;24.20;99.90;;;;;;5017845;28;21027;-78
2021/08/15 08:45:22;;;;;;;8.43;4.57;;;24.30;99.90;;;;;;5013903;28;20486;-78
2021/08/15 08:47:49;;;;;;;5.83;5.23;;;24.30;99.90;;;;;;5012735;28;20455;-77
2021/08/15 08:50:17;;;;;;;6.37;5.23;;;24.30;99.90;;;;;;5012977;28;20505;-77
2021/08/15 08:52:46;;;;;;;5.07;4.37;;;24.30;99.90;;;;;;5010476;28;20521;-78
2021/08/15 08:55:16;;;;;;;5.20;4.63;;;24.40;99.90;;;;;;5010394;28;20479;-77
2021/08/15 08:57:43;;;;;;;3.83;3.53;;;24.40;99.90;;;;;;5011262;28;20459;-78
2021/08/15 09:00:10;;;;;;;4.43;4.03;;;24.40;99.90;;;;;;5011910;28;20463;-78
2021/08/15 09:02:38;;;;;;;4.87;4.40;;;24.50;99.90;;;;;;5019702;28;20455;-78
2021/08/15 09:05:06;;;;;;;5.53;4.40;;;24.40;99.90;;;;;;5015801;28;20462;-79
2021/08/15 09:07:35;;;;;;;6.57;4.60;;;24.30;99.90;;;;;;5018875;28;20890;-78
2021/08/15 09:10:03;;;;;;;4.70;4.03;;;24.30;99.90;;;;;;5018603;28;20447;-77
2021/08/15 09:12:36;;;;;;;5.40;4.50;;;24.20;99.90;;;;;;5012791;28;20486;-77
2021/08/15 09:15:08;;;;;;;5.47;4.13;;;24.10;99.90;;;;;;5012649;28;20494;-78
2021/08/15 09:17:36;;;;;;;4.50;4.10;;;24.10;99.90;;;;;;5010291;28;20467;-75
2021/08/15 09:20:04;;;;;;;6.37;4.60;;;24.00;99.90;;;;;;5011247;28;20531;-75
2021/08/15 09:22:35;;;;;;;5.10;3.90;;;24.00;99.90;;;;;;5010850;28;20464;-77
2021/08/15 09:25:04;;;;;;;4.17;3.63;;;23.90;99.90;;;;;;5009614;28;20463;-78
2021/08/15 09:27:33;;;;;;;5.23;3.37;;;23.90;99.90;;;;;;5011155;28;20463;-78
2021/08/15 09:30:16;;;;;;;5.40;5.00;;;23.90;99.90;;;;;;5012456;28;20635;-77
2021/08/15 09:32:46;;;;;;;5.80;4.40;;;23.80;99.90;;;;;;5008113;28;20456;-77
2021/08/15 09:35:19;;;;;;;3.77;3.47;;;23.80;99.90;;;;;;5005518;28;20451;-77
2021/08/15 09:37:46;;;;;;;5.20;3.73;;;23.80;99.90;;;;;;5010314;28;20796;-77
2021/08/15 09:40:25;;;;;;;5.50;4.67;;;23.80;99.90;;;;;;5006784;28;20464;-77
2021/08/15 09:42:52;;;;;;;4.80;3.23;;;23.80;99.90;;;;;;5002912;28;20456;-78
2021/08/15 09:45:35;;;;;;;4.43;3.93;;;23.90;99.90;;;;;;5007150;28;20489;-77
2021/08/15 09:48:27;;;;;;;5.33;3.93;;;23.90;99.90;;;;;;4998319;28;20877;-77
2021/08/15 09:51:14;;;;;;;5.03;2.93;;;24.00;99.90;;;;;;5003199;28;20915;-78
2021/08/15 09:53:43;;;;;;;4.10;3.70;;;24.10;99.90;;;;;;5006377;28;20470;-77
2021/08/15 09:56:10;;;;;;;4.03;3.37;;;24.20;99.90;;;;;;5009311;28;20474;-77
2021/08/15 09:58:37;;;;;;;3.97;3.33;;;24.20;99.90;;;;;;5001586;28;20452;-77
2021/08/15 10:01:07;;;;;;;5.57;3.30;;;24.20;99.90;;;;;;5007888;28;20460;-77
2021/08/15 10:03:35;;;;;;;4.10;2.87;;;24.30;99.90;;;;;;5002396;28;20459;-77
2021/08/15 10:06:02;;;;;;;4.90;3.00;;;24.30;99.90;;;;;;5009503;28;20467;-77
2021/08/15 10:08:30;;;;;;;4.40;3.30;;;24.30;99.90;;;;;;5010604;28;20444;-77
2021/08/15 10:10:57;;;;;;;5.33;3.20;;;24.40;99.90;;;;;;5010884;28;20554;-77
2021/08/15 10:13:24;;;;;;;4.40;3.17;;;24.40;99.90;;;;;;4997864;28;20456;-77
2021/08/15 10:16:01;;;;;;;4.70;2.93;;;24.40;99.90;;;;;;5009282;28;21063;-77
2021/08/15 10:18:31;;;;;;;4.23;2.83;;;24.50;99.90;;;;;;5010770;28;20784;-77
2021/08/15 10:21:04;;;;;;;4.90;3.43;;;24.50;99.90;;;;;;4997287;28;20567;-76
2021/08/15 10:23:42;;;;;;;5.00;2.77;;;24.50;99.90;;;;;;5006077;28;20463;-76
2021/08/15 10:26:45;;;;;;;4.83;3.53;;;24.80;99.90;;;;;;5012448;28;20532;-77
2021/08/15 10:29:32;;;;;;;4.30;3.40;;;24.50;99.90;;;;;;5010492;28;20440;-77
2021/08/15 10:32:17;;;;;;;5.90;3.23;;;24.60;99.90;;;;;;5018326;28;20456;-76
2021/08/15 10:35:17;;;;;;;3.47;3.13;;;24.60;99.90;;;;;;5006822;28;20455;-77
2021/08/15 10:37:45;;;;;;;3.67;2.73;;;24.60;99.90;;;;;;5003805;28;20484;-77
2021/08/15 10:41:00;;;;;;;4.53;2.73;;;24.70;99.90;;;;;;5006438;28;20463;-77
2021/08/15 10:43:59;;;;;;;3.77;2.40;;;24.70;99.90;;;;;;5004470;28;20467;-77
2021/08/15 10:46:26;;;;;;;4.00;2.93;;;24.70;99.90;;;;;;5001581;28;20590;-76
2021/08/15 10:48:54;;;;;;;9.80;3.50;;;24.80;99.90;;;;;;5002851;28;20463;-77
2021/08/15 10:51:42;;;;;;;4.50;3.33;;;24.80;99.90;;;;;;5005101;28;21061;-77
2021/08/15 10:54:29;;;;;;;5.10;3.80;;;24.80;99.90;;;;;;5003581;28;20463;-77
2021/08/15 10:56:58;;;;;;;2.83;2.53;;;24.90;99.90;;;;;;5005742;28;20498;-77
2021/08/15 10:59:31;;;;;;;4.33;2.80;;;24.90;99.90;;;;;;5007102;28;20976;-77
2021/08/15 11:02:08;;;;;;;2.77;1.93;;;24.90;99.90;;;;;;5006396;28;20460;-77
2021/08/15 11:04:35;;;;;;;3.00;2.57;;;24.90;99.90;;;;;;5003005;28;20462;-76
2021/08/15 11:07:04;;;;;;;3.17;2.63;;;24.90;99.90;;;;;;5003172;28;20463;-77
2021/08/15 11:09:55;;;;;;;2.53;2.20;;;24.90;99.90;;;;;;5009708;28;20948;-77
2021/08/15 11:12:23;;;;;;;5.33;2.57;;;24.90;99.90;;;;;;4997620;28;20457;-76
2021/08/15 11:14:56;;;;;;;3.00;2.40;;;24.90;99.90;;;;;;5005470;28;20475;-77
2021/08/15 11:17:24;;;;;;;4.47;2.80;;;24.90;99.90;;;;;;5007244;28;20479;-76
2021/08/15 11:19:51;;;;;;;4.73;3.00;;;24.90;99.90;;;;;;4999378;28;20820;-77
2021/08/15 11:22:26;;;;;;;4.33;2.90;;;24.90;99.90;;;;;;5009873;28;20479;-77
2021/08/15 11:24:56;;;;;;;5.07;2.50;;;24.90;99.90;;;;;;5001122;28;20460;-76
2021/08/15 11:27:34;;;;;;;3.80;2.57;;;24.90;99.90;;;;;;5011520;28;20525;-77
2021/08/15 11:30:08;;;;;;;3.27;2.50;;;24.90;99.90;;;;;;5011472;28;20467;-77
2021/08/15 11:32:36;;;;;;;3.53;2.33;;;25.00;99.90;;;;;;5011988;28;20446;-76
2021/08/15 11:35:06;;;;;;;2.63;2.30;;;25.00;99.90;;;;;;5009549;28;20853;-78
2021/08/15 11:37:36;;;;;;;3.97;2.60;;;25.00;99.90;;;;;;5011458;28;20490;-77
2021/08/15 11:40:15;;;;;;;5.30;2.53;;;25.00;99.90;;;;;;5012465;28;21162;-77
2021/08/15 11:42:42;;;;;;;3.20;2.60;;;25.00;99.90;;;;;;5003476;28;20452;-77
2021/08/15 11:45:10;;;;;;;3.10;2.37;;;25.00;99.90;;;;;;5003206;28;20456;-77
2021/08/15 11:47:39;;;;;;;6.20;2.70;;;25.00;99.90;;;;;;5013345;28;20463;-78
2021/08/15 11:50:15;;;;;;;2.30;2.10;;;25.00;99.90;;;;;;5012353;28;20502;-76
2021/08/15 11:52:44;;;;;;;7.23;2.70;;;25.00;99.90;;;;;;5011258;28;20470;-77
2021/08/15 11:55:21;;;;;;;2.40;1.83;;;25.00;99.90;;;;;;5009503;28;20879;-76
2021/08/15 11:57:49;;;;;;;3.73;2.50;;;25.00;99.90;;;;;;5009393;28;20579;-78
2021/08/15 12:00:17;;;;;;;3.37;2.40;;;25.00;99.90;;;;;;5010270;28;20502;-77
2021/08/15 12:03:00;;;;;;;3.57;2.03;;;25.00;99.90;;;;;;5009155;28;20456;-78
2021/08/15 12:05:26;;;;;;;3.83;2.70;;;25.00;99.90;;;;;;5010872;28;20778;-78
2021/08/15 12:08:02;;;;;;;3.87;2.83;;;25.00;99.90;;;;;;5008926;28;20967;-78
2021/08/15 12:10:31;;;;;;;2.37;1.90;;;25.00;99.90;;;;;;5004672;28;20451;-77
2021/08/15 12:13:31;;;;;;;3.93;2.47;;;25.00;99.90;;;;;;4996578;28;20962;-77
2021/08/15 12:16:14;;;;;;;5.03;2.50;;;25.00;99.90;;;;;;5009348;28;21132;-79
2021/08/15 12:18:43;;;;;;;4.00;3.00;;;25.00;99.90;;;;;;4999647;28;20969;-77
2021/08/15 12:21:19;;;;;;;4.23;2.00;;;25.00;99.90;;;;;;5009971;28;20452;-77
2021/08/15 12:24:15;;;;;;;6.03;3.40;;;25.00;99.90;;;;;;5011965;28;20796;-78
2021/08/15 12:26:44;;;;;;;4.00;2.50;;;25.10;99.90;;;;;;4973184;28;20463;-78
2021/08/15 12:29:18;;;;;;;5.27;3.20;;;25.10;99.90;;;;;;5011323;28;20991;-78
2021/08/15 12:31:46;;;;;;;5.47;3.30;;;25.00;99.90;;;;;;5012505;28;20448;-77
2021/08/15 12:34:18;;;;;;;2.87;2.20;;;25.10;99.90;;;;;;5008872;28;20451;-79
2021/08/15 12:36:50;;;;;;;3.20;2.30;;;25.10;99.90;;;;;;5011048;28;20494;-79
2021/08/15 12:39:25;;;;;;;3.23;2.50;;;25.10;99.90;;;;;;5010872;28;20790;-79
2021/08/15 12:41:54;;;;;;;6.33;3.00;;;25.10;99.90;;;;;;5012240;28;20498;-79
2021/08/15 12:44:25;;;;;;;4.83;2.47;;;25.00;99.90;;;;;;5011999;28;20931;-78
2021/08/15 12:47:06;;;;;;;5.50;3.50;;;25.10;99.90;;;;;;5013018;28;20455;-78
2021/08/15 12:49:39;;;;;;;2.33;2.13;;;25.00;99.90;;;;;;5012033;28;20444;-78
2021/08/15 12:52:16;;;;;;;4.17;2.57;;;25.10;99.90;;;;;;5007099;28;20460;-78
2021/08/15 12:55:04;;;;;;;3.87;2.70;;;25.10;99.90;;;;;;5011445;28;20471;-78
2021/08/15 12:57:32;;;;;;;3.43;2.63;;;25.10;99.90;;;;;;5006553;28;20591;-78